Time;durP1;ratioP1;P1;durP2;ratioP2;P2;SDS_P1;SDS_P2;PMS_P1;PMS_P2;Temp;Humidity;BMP_temperature;BMP_pressure;BME280_temperature;BME280_humidity;BME280_pressure;Samples;Min_cycle;Max_cycle;Signal;HPM_P1;HPM_P2
2022/11/30 00:01:10;;;;;;;0.73;0.73;;;6.20;99.90;;;;;;5005697;28;20049;-86
2022/11/30 00:03:36;;;;;;;0.50;0.50;;;6.20;99.90;;;;;;5003633;28;20384;-81
2022/11/30 00:06:08;;;;;;;0.40;0.40;;;6.20;99.90;;;;;;4985800;28;20076;-84
2022/11/30 00:08:34;;;;;;;0.50;0.50;;;7.10;99.90;;;;;;5004577;28;20099;-81
2022/11/30 00:10:59;;;;;;;0.65;0.65;;;6.20;99.90;;;;;;5003569;28;20436;-83
2022/11/30 00:13:27;;;;;;;1.83;1.35;;;6.20;99.90;;;;;;4989029;28;20475;-84
2022/11/30 00:15:58;;;;;;;0.50;0.50;;;6.20;99.90;;;;;;5031462;28;20038;-82
2022/11/30 00:18:26;;;;;;;0.50;0.50;;;6.20;99.90;;;;;;5019472;28;20088;-81
2022/11/30 00:20:52;;;;;;;0.50;0.50;;;6.20;99.90;;;;;;5008034;28;20446;-83
2022/11/30 00:23:18;;;;;;;0.50;0.50;;;6.20;99.90;;;;;;5002312;28;20057;-81
2022/11/30 00:25:44;;;;;;;;;;;6.20;99.90;;;;;;5008147;28;20655;-80
2022/11/30 00:28:09;;;;;;;0.85;0.85;;;6.10;99.90;;;;;;5006521;28;19960;-81
2022/11/30 00:30:35;;;;;;;0.30;0.30;;;6.00;99.90;;;;;;5002935;28;20041;-82
2022/11/30 00:33:01;;;;;;;0.50;0.50;;;5.80;99.90;;;;;;5018150;28;20072;-81
2022/11/30 00:35:27;;;;;;;0.68;0.68;;;6.10;99.90;;;;;;5003832;28;20103;-83
2022/11/30 00:37:53;;;;;;;0.50;0.50;;;5.50;99.90;;;;;;5005491;28;20049;-81
2022/11/30 00:40:18;;;;;;;0.60;0.60;;;5.40;99.90;;;;;;5001347;28;21879;-80
2022/11/30 00:42:44;;;;;;;0.55;0.55;;;5.30;99.90;;;;;;4983514;28;20049;-83
2022/11/30 00:45:11;;;;;;;0.60;0.60;;;5.30;99.90;;;;;;4999396;28;20056;-81
2022/11/30 00:47:37;;;;;;;0.60;0.60;;;5.30;99.90;;;;;;5020814;28;20065;-83
2022/11/30 00:50:04;;;;;;;0.50;0.50;;;5.20;99.90;;;;;;5020319;28;20125;-82
2022/11/30 00:52:29;;;;;;;0.57;0.57;;;5.30;99.90;;;;;;5017439;28;20073;-83
2022/11/30 00:54:55;;;;;;;0.50;0.50;;;5.30;99.90;;;;;;5000834;28;20569;-80
2022/11/30 00:57:21;;;;;;;0.60;0.60;;;5.70;99.90;;;;;;4988710;28;20088;-84
2022/11/30 00:59:46;;;;;;;1.98;1.88;;;5.40;99.90;;;;;;5002574;28;20057;-85
2022/11/30 01:02:13;;;;;;;0.60;0.60;;;5.50;99.90;;;;;;4989084;28;20059;-84
2022/11/30 01:04:38;;;;;;;0.80;0.80;;;5.80;99.90;;;;;;5001690;28;20052;-82
2022/11/30 01:07:05;;;;;;;1.88;1.50;;;5.60;99.90;;;;;;5003486;28;20772;-84
2022/11/30 01:09:31;;;;;;;0.65;0.65;;;5.70;99.90;;;;;;5003079;28;20053;-84
2022/11/30 01:11:56;;;;;;;2.67;2.58;;;5.70;99.90;;;;;;4987439;28;20490;-84
2022/11/30 01:14:22;;;;;;;1.58;1.25;;;6.10;99.90;;;;;;5017936;28;20053;-85
2022/11/30 01:16:48;;;;;;;1.25;1.25;;;5.80;99.90;;;;;;5016955;28;20046;-80
2022/11/30 01:19:14;;;;;;;1.30;1.27;;;5.70;99.90;;;;;;4989058;28;20164;-82
2022/11/30 01:21:40;;;;;;;2.97;2.85;;;5.80;99.90;;;;;;5003238;28;21908;-82
2022/11/30 01:24:06;;;;;;;2.22;2.13;;;5.80;99.90;;;;;;5001912;28;21126;-85
2022/11/30 01:26:32;;;;;;;3.53;2.65;;;5.80;99.90;;;;;;5001883;28;20091;-81
2022/11/30 01:28:58;;;;;;;3.45;2.13;;;6.00;99.90;;;;;;5004013;28;20045;-81
2022/11/30 01:31:24;;;;;;;1.42;1.40;;;5.70;99.90;;;;;;5002828;28;20138;-82
2022/11/30 01:33:52;;;;;;;3.55;3.28;;;5.70;99.90;;;;;;5003789;28;20097;-83
2022/11/30 01:36:24;;;;;;;3.70;2.85;;;5.70;99.90;;;;;;5006762;28;20049;-83
2022/11/30 01:38:54;;;;;;;0.90;0.90;;;5.80;99.90;;;;;;5019432;28;20046;-81
2022/11/30 01:41:26;;;;;;;1.17;1.17;;;5.70;99.90;;;;;;4989332;28;20144;-85
2022/11/30 01:44:16;;;;;;;0.88;0.88;;;5.70;99.90;;;;;;5004014;28;20045;-85
2022/11/30 01:46:53;;;;;;;6.07;5.28;;;6.20;99.90;;;;;;5020358;28;20061;-81
2022/11/30 01:49:36;;;;;;;1.48;0.90;;;5.70;99.90;;;;;;5004057;28;20045;-81
2022/11/30 01:52:04;;;;;;;0.75;0.75;;;5.70;99.90;;;;;;5003255;28;20049;-85
2022/11/30 01:54:43;;;;;;;1.20;1.15;;;6.00;99.90;;;;;;5023336;28;20041;-80
2022/11/30 01:57:19;;;;;;;0.60;0.60;;;5.70;99.90;;;;;;5009135;28;20526;-79
2022/11/30 01:59:46;;;;;;;1.00;1.00;;;5.70;99.90;;;;;;4991478;28;20056;-84
2022/11/30 02:02:12;;;;;;;1.40;1.30;;;5.70;99.90;;;;;;5002728;28;20049;-82
2022/11/30 02:04:38;;;;;;;;;;;5.70;99.90;;;;;;5003227;28;20037;-84
2022/11/30 02:07:07;;;;;;;0.50;0.50;;;5.70;99.90;;;;;;5004438;28;19925;-82
2022/11/30 02:09:41;;;;;;;0.70;0.70;;;5.70;99.90;;;;;;5021833;28;20423;-86
2022/11/30 02:12:10;;;;;;;0.45;0.45;;;5.70;99.90;;;;;;5019004;28;20045;-81
2022/11/30 02:14:47;;;;;;;3.95;3.55;;;6.20;99.90;;;;;;5002284;28;20056;-85
2022/11/30 02:17:58;;;;;;;1.23;1.13;;;6.50;99.90;;;;;;5005195;28;20042;-81
2022/11/30 02:20:54;;;;;;;0.60;0.60;;;5.70;99.90;;;;;;5003287;28;20057;-80
2022/11/30 02:23:56;;;;;;;0.57;0.57;;;5.70;99.90;;;;;;5011440;28;20049;-81
2022/11/30 02:26:47;;;;;;;0.50;0.50;;;5.70;99.90;;;;;;5009516;28;20037;-82
2022/11/30 02:29:24;;;;;;;1.90;1.25;;;5.70;99.90;;;;;;4985970;28;21914;-81
2022/11/30 02:32:06;;;;;;;0.50;0.50;;;5.80;99.90;;;;;;5020123;28;20048;-79
2022/11/30 02:34:34;;;;;;;0.60;0.60;;;5.80;99.90;;;;;;5018419;28;20807;-84
2022/11/30 02:37:02;;;;;;;4.50;1.13;;;5.80;99.90;;;;;;5002017;28;20045;-82
2022/11/30 02:39:27;;;;;;;0.60;0.60;;;5.80;99.90;;;;;;5005767;28;20049;-83
2022/11/30 02:41:53;;;;;;;0.65;0.65;;;5.80;99.90;;;;;;4986747;28;20166;-86
2022/11/30 02:44:21;;;;;;;0.98;0.98;;;5.80;99.90;;;;;;5002410;28;20045;-82
2022/11/30 02:47:09;;;;;;;0.73;0.73;;;5.80;99.90;;;;;;5006320;28;21556;-84
2022/11/30 02:49:51;;;;;;;0.60;0.60;;;5.90;99.90;;;;;;5004589;28;20084;-86
2022/11/30 02:52:20;;;;;;;0.50;0.50;;;5.80;99.90;;;;;;5005782;28;20045;-82
2022/11/30 02:54:46;;;;;;;0.65;0.65;;;5.90;99.90;;;;;;4986418;28;20073;-85
2022/11/30 02:57:12;;;;;;;;;;;5.80;99.90;;;;;;5002584;28;20073;-81
2022/11/30 02:59:38;;;;;;;1.13;1.13;;;5.80;99.90;;;;;;5021508;28;20030;-80
2022/11/30 03:02:05;;;;;;;0.55;0.55;;;5.90;99.90;;;;;;5019987;28;20099;-82
2022/11/30 03:04:34;;;;;;;0.60;0.60;;;5.90;99.90;;;;;;5002973;28;20045;-79
2022/11/30 03:06:59;;;;;;;1.27;1.27;;;5.90;99.90;;;;;;4986199;28;20151;-81
2022/11/30 03:09:25;;;;;;;0.70;0.70;;;5.90;99.90;;;;;;5003471;28;20144;-84
2022/11/30 03:11:51;;;;;;;0.82;0.82;;;5.90;99.90;;;;;;4989921;28;20110;-82
2022/11/30 03:14:16;;;;;;;0.60;0.60;;;5.90;99.90;;;;;;5002963;28;20176;-84
2022/11/30 03:16:48;;;;;;;0.68;0.68;;;5.90;99.90;;;;;;4987302;28;20037;-81
2022/11/30 03:19:15;;;;;;;0.63;0.63;;;5.90;99.90;;;;;;5005192;28;20093;-82
2022/11/30 03:21:41;;;;;;;0.60;0.60;;;6.00;99.90;;;;;;4986287;28;20143;-82
2022/11/30 03:24:08;;;;;;;0.60;0.60;;;5.90;99.90;;;;;;5002148;28;20052;-82
2022/11/30 03:26:34;;;;;;;0.50;0.50;;;6.00;99.90;;;;;;5007592;28;20053;-81
2022/11/30 03:28:59;;;;;;;1.25;1.15;;;5.90;99.90;;;;;;4995359;28;20037;-81
2022/11/30 03:31:25;;;;;;;0.60;0.60;;;6.20;99.90;;;;;;5005002;28;20157;-82
2022/11/30 03:33:51;;;;;;;0.57;0.57;;;5.90;99.90;;;;;;5006742;28;20061;-80
2022/11/30 03:36:16;;;;;;;1.17;1.17;;;6.00;99.90;;;;;;5006659;28;20041;-83
2022/11/30 03:38:42;;;;;;;0.50;0.50;;;6.00;99.90;;;;;;5022610;28;20037;-82
2022/11/30 03:41:12;;;;;;;0.60;0.60;;;6.00;99.90;;;;;;5006927;28;20436;-82
2022/11/30 03:43:38;;;;;;;0.93;0.93;;;6.00;99.90;;;;;;5024606;28;20041;-80
2022/11/30 03:46:03;;;;;;;0.47;0.47;;;6.00;99.90;;;;;;5009585;28;20041;-80
2022/11/30 03:48:30;;;;;;;0.60;0.60;;;6.00;99.90;;;;;;5007697;28;20037;-81
2022/11/30 03:50:56;;;;;;;0.45;0.45;;;6.00;99.90;;;;;;5005714;28;20125;-80
2022/11/30 03:53:23;;;;;;;1.40;0.82;;;5.90;99.90;;;;;;4989691;28;20516;-80
2022/11/30 03:55:58;;;;;;;1.40;1.30;;;6.00;99.90;;;;;;5006476;28;20137;-83
2022/11/30 03:58:24;;;;;;;0.82;0.82;;;6.00;99.90;;;;;;5023575;28;20053;-83
2022/11/30 04:01:05;;;;;;;0.73;0.70;;;6.30;99.90;;;;;;4987696;28;20068;-80
2022/11/30 04:03:34;;;;;;;1.77;1.63;;;6.00;99.90;;;;;;5004934;28;20041;-82
2022/11/30 04:06:00;;;;;;;;;;;6.00;99.90;;;;;;5003612;28;20101;-83
2022/11/30 04:08:27;;;;;;;0.60;0.60;;;6.00;99.90;;;;;;5022802;28;19925;-84
2022/11/30 04:10:54;;;;;;;;;;;6.10;99.90;;;;;;5023167;28;20089;-81
2022/11/30 04:13:23;;;;;;;0.55;0.55;;;6.00;99.90;;;;;;5003686;28;19917;-81
2022/11/30 04:15:51;;;;;;;0.50;0.50;;;6.00;99.90;;;;;;4969685;28;20045;-80
2022/11/30 04:18:18;;;;;;;0.43;0.43;;;6.00;99.90;;;;;;4988340;28;20508;-82
2022/11/30 04:20:44;;;;;;;0.50;0.50;;;6.00;99.90;;;;;;5023604;28;20395;-84
2022/11/30 04:23:11;;;;;;;0.60;0.60;;;6.00;99.90;;;;;;4992051;28;20065;-81
2022/11/30 04:25:43;;;;;;;0.47;0.47;;;6.10;99.90;;;;;;5022594;28;20045;-83
2022/11/30 04:28:09;;;;;;;0.50;0.50;;;6.10;99.90;;;;;;5010382;28;20049;-81
2022/11/30 04:30:37;;;;;;;0.55;0.55;;;6.10;99.90;;;;;;4987789;28;20758;-83
2022/11/30 04:33:06;;;;;;;0.68;0.68;;;6.10;99.90;;;;;;5020002;28;20128;-81
2022/11/30 04:35:32;;;;;;;0.40;0.40;;;6.10;99.90;;;;;;5021792;28;22007;-82
2022/11/30 04:38:00;;;;;;;1.02;1.02;;;6.70;99.90;;;;;;5006329;28;20725;-83
2022/11/30 04:40:25;;;;;;;0.57;0.57;;;6.10;99.90;;;;;;4989531;28;20044;-85
2022/11/30 04:42:52;;;;;;;;;;;6.10;99.90;;;;;;5006157;28;20072;-81
2022/11/30 04:45:18;;;;;;;0.52;0.52;;;6.10;99.90;;;;;;4993148;28;19916;-82
2022/11/30 04:47:44;;;;;;;0.40;0.40;;;6.10;99.90;;;;;;5000611;28;20048;-84
2022/11/30 04:50:13;;;;;;;1.25;1.23;;;6.10;99.90;;;;;;5009059;28;20894;-82
2022/11/30 04:52:40;;;;;;;1.77;1.67;;;6.00;99.90;;;;;;5002239;28;20030;-83
2022/11/30 04:55:07;;;;;;;1.95;1.85;;;6.10;99.90;;;;;;4986149;28;20119;-82
2022/11/30 04:57:33;;;;;;;0.43;0.43;;;6.00;99.90;;;;;;5020384;28;20751;-83
2022/11/30 05:00:03;;;;;;;0.50;0.50;;;6.10;99.90;;;;;;5020489;28;20033;-83
2022/11/30 05:02:29;;;;;;;0.47;0.47;;;6.00;99.90;;;;;;5004842;28;20103;-81
2022/11/30 05:04:55;;;;;;;0.50;0.50;;;6.50;99.90;;;;;;5004711;28;21937;-83
2022/11/30 05:07:22;;;;;;;0.52;0.52;;;6.10;99.90;;;;;;4968452;28;20045;-82
2022/11/30 05:09:56;;;;;;;0.50;0.50;;;6.10;99.90;;;;;;5019171;28;20087;-82
2022/11/30 05:12:22;;;;;;;;;;;6.00;99.90;;;;;;5023863;28;20406;-84
2022/11/30 05:14:48;;;;;;;0.47;0.47;;;6.00;99.90;;;;;;5024098;28;19925;-85
2022/11/30 05:17:14;;;;;;;0.50;0.50;;;6.20;99.90;;;;;;5006541;28;20056;-80
2022/11/30 05:19:39;;;;;;;2.13;1.83;;;6.00;99.90;;;;;;5003704;28;20045;-80
2022/11/30 05:22:05;;;;;;;0.43;0.43;;;6.00;99.90;;;;;;5005140;28;20491;-82
2022/11/30 05:24:31;;;;;;;0.50;0.50;;;6.00;99.90;;;;;;5005429;28;20045;-80
2022/11/30 05:26:57;;;;;;;0.50;0.50;;;6.00;99.90;;;;;;5005535;28;20081;-81
2022/11/30 05:29:23;;;;;;;0.80;0.80;;;6.00;99.90;;;;;;4988351;28;20446;-85
2022/11/30 05:31:49;;;;;;;;;;;6.00;99.90;;;;;;5021830;28;20049;-83
2022/11/30 05:34:15;;;;;;;1.15;1.15;;;5.90;99.90;;;;;;4987923;28;20382;-81
2022/11/30 05:36:41;;;;;;;0.50;0.50;;;5.90;99.90;;;;;;4985929;28;20057;-83
2022/11/30 05:39:07;;;;;;;1.13;1.13;;;5.90;99.90;;;;;;5017124;28;20069;-82
2022/11/30 05:41:33;;;;;;;0.90;0.90;;;5.90;99.90;;;;;;4986300;28;20045;-81
2022/11/30 05:43:58;;;;;;;0.80;0.80;;;6.80;99.90;;;;;;5001447;28;20184;-80
2022/11/30 05:46:24;;;;;;;1.38;1.33;;;5.90;99.90;;;;;;4989870;28;20055;-82
2022/11/30 05:48:50;;;;;;;0.70;0.70;;;6.10;99.90;;;;;;4988059;28;20044;-83
2022/11/30 05:51:17;;;;;;;;;;;5.90;99.90;;;;;;5019450;28;20064;-82
2022/11/30 05:53:44;;;;;;;0.50;0.50;;;5.90;99.90;;;;;;5021960;28;19917;-83
2022/11/30 05:56:12;;;;;;;1.05;1.05;;;5.90;99.90;;;;;;4991534;28;20051;-83
2022/11/30 05:58:39;;;;;;;0.52;0.52;;;6.10;99.90;;;;;;5003807;28;20056;-84
2022/11/30 06:01:05;;;;;;;0.80;0.80;;;5.90;99.90;;;;;;5001987;28;20184;-83
2022/11/30 06:03:32;;;;;;;0.57;0.57;;;5.80;99.90;;;;;;4970924;28;20098;-84
2022/11/30 06:05:58;;;;;;;0.52;0.52;;;5.80;99.90;;;;;;5018118;28;20049;-85
2022/11/30 06:08:24;;;;;;;0.50;0.50;;;5.80;99.90;;;;;;5003501;28;20049;-85
2022/11/30 06:10:50;;;;;;;0.55;0.55;;;5.80;99.90;;;;;;5001699;28;20049;-86
2022/11/30 06:13:16;;;;;;;1.00;0.98;;;5.80;99.90;;;;;;5018331;28;20406;-83
2022/11/30 06:15:42;;;;;;;;;;;5.80;99.90;;;;;;5004302;28;20045;-82
2022/11/30 06:18:10;;;;;;;0.50;0.50;;;5.80;99.90;;;;;;5001669;28;19917;-82
2022/11/30 06:20:35;;;;;;;0.50;0.50;;;5.70;99.90;;;;;;5002233;28;20057;-82
2022/11/30 06:23:01;;;;;;;1.17;0.73;;;5.70;99.90;;;;;;5021289;28;20055;-80
2022/11/30 06:25:27;;;;;;;1.42;1.38;;;5.90;99.90;;;;;;5020848;28;20029;-85
2022/11/30 06:27:53;;;;;;;0.95;0.95;;;5.70;99.90;;;;;;5022427;28;20427;-84
2022/11/30 06:30:19;;;;;;;0.80;0.80;;;5.70;99.90;;;;;;5020759;28;21014;-82
2022/11/30 06:32:48;;;;;;;;;;;5.70;99.90;;;;;;5004594;28;20467;-82
2022/11/30 06:35:15;;;;;;;3.13;2.78;;;5.70;99.90;;;;;;5003421;28;19927;-82
2022/11/30 06:37:41;;;;;;;0.50;0.50;;;5.60;99.90;;;;;;5019429;28;20471;-86
2022/11/30 06:40:08;;;;;;;0.70;0.70;;;5.70;99.90;;;;;;4980079;28;20041;-83
2022/11/30 06:42:35;;;;;;;0.55;0.55;;;5.60;99.90;;;;;;5001501;28;20770;-83
2022/11/30 06:45:00;;;;;;;0.68;0.68;;;5.60;99.90;;;;;;5015095;28;20064;-81
2022/11/30 06:47:27;;;;;;;0.80;0.80;;;5.70;99.90;;;;;;4989348;28;20045;-81
2022/11/30 06:49:53;;;;;;;0.60;0.60;;;5.60;99.90;;;;;;5005629;28;20421;-85
2022/11/30 06:52:18;;;;;;;0.70;0.70;;;5.60;99.90;;;;;;5001601;28;20056;-82
2022/11/30 06:54:44;;;;;;;0.60;0.60;;;5.60;99.90;;;;;;4996992;28;20033;-82
2022/11/30 06:57:10;;;;;;;0.98;0.98;;;5.60;99.90;;;;;;4997178;28;20586;-82
2022/11/30 06:59:41;;;;;;;0.60;0.60;;;5.60;99.90;;;;;;4998003;28;20045;-85
2022/11/30 07:02:12;;;;;;;0.60;0.60;;;6.20;99.90;;;;;;5001355;28;20049;-83
2022/11/30 07:04:38;;;;;;;0.60;0.60;;;5.60;99.90;;;;;;5017751;28;20041;-83
2022/11/30 07:07:06;;;;;;;0.57;0.57;;;5.70;99.90;;;;;;5002640;28;20056;-83
2022/11/30 07:09:35;;;;;;;1.25;1.25;;;5.90;99.90;;;;;;5017925;28;21019;-83
2022/11/30 07:12:01;;;;;;;0.70;0.70;;;5.60;99.90;;;;;;5019602;28;20042;-79
2022/11/30 07:14:28;;;;;;;0.50;0.50;;;5.60;99.90;;;;;;5018638;28;20033;-83
2022/11/30 07:16:54;;;;;;;0.65;0.65;;;5.60;99.90;;;;;;5002491;28;20046;-85
2022/11/30 07:19:20;;;;;;;0.70;0.70;;;5.60;99.90;;;;;;5018625;28;21887;-80
2022/11/30 07:21:45;;;;;;;0.75;0.75;;;5.60;99.90;;;;;;5003974;28;21547;-82
2022/11/30 07:26:59;;;;;;;0.50;0.50;;;6.00;99.90;;;;;;5005138;28;20068;-82
2022/11/30 07:29:24;;;;;;;0.57;0.57;;;6.00;99.90;;;;;;5019687;28;20474;-83
2022/11/30 07:31:51;;;;;;;0.50;0.50;;;5.60;99.90;;;;;;5001446;28;20106;-81
2022/11/30 07:34:18;;;;;;;0.93;0.93;;;5.60;99.90;;;;;;5001361;28;20041;-81
2022/11/30 07:36:49;;;;;;;0.85;0.85;;;5.60;99.90;;;;;;5016212;28;20044;-82
2022/11/30 07:39:18;;;;;;;1.40;1.35;;;5.60;99.90;;;;;;5024048;28;20060;-82
2022/11/30 07:41:43;;;;;;;0.50;0.50;;;5.60;99.90;;;;;;4992701;28;20095;-81
2022/11/30 07:44:10;;;;;;;0.60;0.60;;;5.60;99.90;;;;;;4997970;28;20050;-80
2022/11/30 07:46:37;;;;;;;0.60;0.60;;;5.60;99.90;;;;;;5001315;28;20090;-81
2022/11/30 07:49:08;;;;;;;1.40;1.40;;;5.60;99.90;;;;;;5021579;28;20049;-82
2022/11/30 07:51:34;;;;;;;0.60;0.60;;;5.60;99.90;;;;;;5005707;28;20045;-80
2022/11/30 07:54:00;;;;;;;;;;;5.60;99.90;;;;;;5000540;28;20048;-80
2022/11/30 07:56:27;;;;;;;0.52;0.52;;;5.60;99.90;;;;;;4997262;28;19925;-82
2022/11/30 07:58:59;;;;;;;0.60;0.60;;;5.60;99.90;;;;;;5000365;28;20487;-82
2022/11/30 08:01:30;;;;;;;0.50;0.50;;;5.60;99.90;;;;;;5020348;28;20503;-80
2022/11/30 08:03:56;;;;;;;0.52;0.52;;;5.60;99.90;;;;;;5018655;28;21880;-81
2022/11/30 08:06:25;;;;;;;0.52;0.52;;;6.00;99.90;;;;;;4984507;28;20045;-80
2022/11/30 08:08:52;;;;;;;0.55;0.55;;;5.50;99.90;;;;;;5003024;28;20064;-82
2022/11/30 08:11:23;;;;;;;0.50;0.50;;;5.60;99.90;;;;;;5007855;28;20041;-80
2022/11/30 08:13:49;;;;;;;0.93;0.60;;;5.60;99.90;;;;;;5020730;28;20077;-81
2022/11/30 08:16:18;;;;;;;0.68;0.68;;;5.60;99.90;;;;;;5024316;28;20042;-81
2022/11/30 08:18:44;;;;;;;0.52;0.52;;;5.60;99.90;;;;;;5007822;28;20041;-79
2022/11/30 08:21:11;;;;;;;;;;;5.60;99.90;;;;;;5005356;28;21701;-84
2022/11/30 08:23:39;;;;;;;0.65;0.65;;;5.60;99.90;;;;;;5018494;28;20421;-84
2022/11/30 08:26:19;;;;;;;0.47;0.47;;;5.70;99.90;;;;;;5025702;28;20042;-85
2022/11/30 08:28:47;;;;;;;0.70;0.70;;;5.60;99.90;;;;;;5017351;28;20367;-85
2022/11/30 08:31:17;;;;;;;0.55;0.55;;;5.60;99.90;;;;;;5020532;28;20050;-83
2022/11/30 08:33:43;;;;;;;0.60;0.60;;;5.60;99.90;;;;;;5017881;28;20120;-86
2022/11/30 08:36:17;;;;;;;0.50;0.50;;;6.30;99.90;;;;;;5025354;28;20116;-83
2022/11/30 08:38:44;;;;;;;0.55;0.55;;;5.80;99.90;;;;;;5003030;28;20042;-82
2022/11/30 08:41:13;;;;;;;1.33;1.17;;;5.60;99.90;;;;;;5012508;28;20049;-82
2022/11/30 08:43:40;;;;;;;0.98;0.98;;;5.70;99.90;;;;;;4993900;28;20049;-83
2022/11/30 08:46:09;;;;;;;0.73;0.73;;;5.70;99.90;;;;;;5006545;28;20045;-81
2022/11/30 08:48:35;;;;;;;0.50;0.50;;;5.70;99.90;;;;;;5003213;28;20482;-80
2022/11/30 08:51:04;;;;;;;0.70;0.70;;;5.80;99.90;;;;;;4987418;28;20053;-80
2022/11/30 08:53:30;;;;;;;0.43;0.43;;;5.80;99.90;;;;;;5018108;28;20148;-82
2022/11/30 08:56:04;;;;;;;0.55;0.55;;;5.80;99.90;;;;;;5006536;28;20057;-81
2022/11/30 08:58:33;;;;;;;0.57;0.57;;;5.80;99.90;;;;;;5026600;28;20029;-81
2022/11/30 09:01:19;;;;;;;0.40;0.40;;;5.80;99.90;;;;;;5012914;28;20042;-81
2022/11/30 09:03:46;;;;;;;0.57;0.57;;;5.90;99.90;;;;;;5012775;28;20045;-82
2022/11/30 09:06:28;;;;;;;0.60;0.60;;;5.90;99.90;;;;;;5009950;28;20077;-80
2022/11/30 09:08:56;;;;;;;0.60;0.60;;;5.90;99.90;;;;;;5010385;28;20487;-82
2022/11/30 09:11:31;;;;;;;0.98;0.98;;;6.00;99.90;;;;;;5015312;28;20053;-81
2022/11/30 09:13:58;;;;;;;0.38;0.38;;;6.00;99.90;;;;;;5010817;28;20049;-81
2022/11/30 09:16:27;;;;;;;0.50;0.50;;;6.10;99.90;;;;;;5030398;28;20037;-82
2022/11/30 09:18:53;;;;;;;0.60;0.60;;;7.00;99.90;;;;;;5026351;28;20123;-81
2022/11/30 09:21:22;;;;;;;0.60;0.60;;;6.10;99.90;;;;;;5012813;28;20061;-82
2022/11/30 09:23:49;;;;;;;0.47;0.47;;;6.20;99.90;;;;;;5009296;28;20115;-80
2022/11/30 09:26:16;;;;;;;0.60;0.60;;;6.20;99.90;;;;;;5026117;28;20441;-79
2022/11/30 09:28:43;;;;;;;0.60;0.60;;;6.10;99.90;;;;;;5022264;28;20049;-78
2022/11/30 09:31:18;;;;;;;0.55;0.55;;;6.10;99.90;;;;;;4989269;28;20132;-81
2022/11/30 09:33:45;;;;;;;0.55;0.55;;;6.20;99.90;;;;;;5005138;28;20045;-81
2022/11/30 09:36:17;;;;;;;0.70;0.70;;;6.20;99.90;;;;;;5022756;28;20168;-80
2022/11/30 09:38:43;;;;;;;0.50;0.50;;;6.20;99.90;;;;;;5024358;28;20406;-78
2022/11/30 09:41:40;;;;;;;0.52;0.52;;;6.20;99.90;;;;;;5005801;28;20534;-80
2022/11/30 09:44:36;;;;;;;7.55;2.95;;;6.20;99.90;;;;;;4989122;28;20053;-78
2022/11/30 09:47:34;;;;;;;0.43;0.43;;;6.20;99.90;;;;;;5007873;28;20045;-79
2022/11/30 09:50:09;;;;;;;0.50;0.50;;;6.20;99.90;;;;;;5005442;28;20175;-84
2022/11/30 09:52:47;;;;;;;0.40;0.40;;;6.20;99.90;;;;;;5007502;28;20171;-78
2022/11/30 09:55:23;;;;;;;0.80;0.80;;;6.30;99.90;;;;;;5018850;28;20068;-80
2022/11/30 09:57:53;;;;;;;1.07;1.07;;;6.40;99.90;;;;;;5031199;28;20218;-83
2022/11/30 10:00:23;;;;;;;0.60;0.60;;;6.40;99.90;;;;;;5032948;28;20102;-77
2022/11/30 10:02:51;;;;;;;0.63;0.63;;;6.40;99.90;;;;;;5013022;28;20056;-85
2022/11/30 10:05:42;;;;;;;0.50;0.50;;;6.50;99.90;;;;;;5027903;28;20064;-80
2022/11/30 10:08:41;;;;;;;0.52;0.52;;;6.40;99.90;;;;;;5023913;28;20045;-78
2022/11/30 10:11:37;;;;;;;0.50;0.50;;;6.40;99.90;;;;;;4997901;28;20064;-80
2022/11/30 10:14:16;;;;;;;0.85;0.85;;;6.40;99.90;;;;;;5020604;28;20037;-80
2022/11/30 10:17:02;;;;;;;1.85;1.75;;;6.50;99.90;;;;;;5009846;28;20499;-82
2022/11/30 10:20:05;;;;;;;0.60;0.60;;;6.40;99.90;;;;;;5007180;28;20037;-79
2022/11/30 10:22:59;;;;;;;1.02;1.02;;;6.50;99.90;;;;;;5008526;28;20057;-77
2022/11/30 10:25:43;;;;;;;0.70;0.70;;;6.50;99.90;;;;;;5027672;28;20045;-82
2022/11/30 10:28:20;;;;;;;0.82;0.82;;;6.50;99.90;;;;;;5008931;28;20081;-79
2022/11/30 10:30:48;;;;;;;0.90;0.90;;;6.50;99.90;;;;;;4992472;28;20555;-80
2022/11/30 10:33:18;;;;;;;0.55;0.55;;;6.60;99.90;;;;;;5012066;28;20050;-80
2022/11/30 10:35:51;;;;;;;0.75;0.75;;;6.70;99.90;;;;;;5031587;28;20037;-79
2022/11/30 10:38:20;;;;;;;1.50;1.50;;;6.50;99.90;;;;;;5009970;28;20081;-78
2022/11/30 10:40:57;;;;;;;0.60;0.60;;;6.50;99.90;;;;;;5008599;28;20050;-79
2022/11/30 10:43:42;;;;;;;0.43;0.43;;;6.50;99.90;;;;;;5019995;28;20478;-80
2022/11/30 10:46:19;;;;;;;1.67;1.60;;;6.50;99.90;;;;;;5023932;28;20510;-78
2022/11/30 10:48:54;;;;;;;4.85;1.98;;;6.50;99.90;;;;;;5021041;28;20037;-78
2022/11/30 10:51:32;;;;;;;1.45;1.45;;;6.50;99.90;;;;;;5004401;28;20085;-80
2022/11/30 10:54:20;;;;;;;1.50;1.20;;;6.50;99.90;;;;;;5004765;28;20135;-78
2022/11/30 10:56:51;;;;;;;0.50;0.50;;;7.20;99.90;;;;;;5016867;28;20427;-76
2022/11/30 10:59:24;;;;;;;1.63;0.85;;;6.60;99.90;;;;;;4990459;28;20041;-75
2022/11/30 11:01:52;;;;;;;0.80;0.80;;;6.50;99.90;;;;;;5022168;28;20041;-80
2022/11/30 11:04:23;;;;;;;2.10;1.95;;;6.50;99.90;;;;;;5020593;28;20041;-78
2022/11/30 11:07:07;;;;;;;0.60;0.60;;;6.50;99.90;;;;;;5027412;28;20056;-77
2022/11/30 11:09:45;;;;;;;1.15;1.15;;;6.60;99.90;;;;;;5011768;28;20056;-77
2022/11/30 11:12:29;;;;;;;0.70;0.70;;;6.60;99.90;;;;;;5014475;28;20747;-79
2022/11/30 11:15:19;;;;;;;1.92;1.83;;;6.60;99.90;;;;;;4993529;28;20279;-80
2022/11/30 11:17:47;;;;;;;1.35;1.25;;;6.60;99.90;;;;;;5014890;28;20259;-81
2022/11/30 11:20:33;;;;;;;1.65;1.58;;;6.60;99.90;;;;;;4996694;28;20037;-81
2022/11/30 11:23:05;;;;;;;0.50;0.50;;;6.80;99.90;;;;;;5002729;28;20066;-77
2022/11/30 11:25:36;;;;;;;0.88;0.88;;;6.70;99.90;;;;;;4987182;28;20063;-76
2022/11/30 11:28:14;;;;;;;0.60;0.60;;;6.80;99.90;;;;;;5003482;28;20045;-76
2022/11/30 11:30:40;;;;;;;0.73;0.73;;;6.90;99.90;;;;;;5019624;28;20049;-80
2022/11/30 11:33:12;;;;;;;0.70;0.68;;;6.90;99.90;;;;;;5019529;28;20049;-81
2022/11/30 11:35:39;;;;;;;0.82;0.82;;;6.90;99.90;;;;;;5017268;28;20045;-75
2022/11/30 11:38:22;;;;;;;0.70;0.70;;;6.80;99.90;;;;;;5002965;28;20614;-75
2022/11/30 11:41:02;;;;;;;0.57;0.57;;;6.90;99.90;;;;;;4986331;28;20434;-76
2022/11/30 11:43:34;;;;;;;1.17;1.08;;;6.90;99.90;;;;;;4991025;28;20077;-78
2022/11/30 11:46:12;;;;;;;1.35;1.25;;;6.90;99.90;;;;;;5019719;28;20049;-81
2022/11/30 11:48:44;;;;;;;1.25;1.25;;;6.80;99.90;;;;;;5003855;28;20111;-79
2022/11/30 11:51:23;;;;;;;1.40;0.93;;;6.70;99.90;;;;;;5023497;28;20044;-79
2022/11/30 11:54:28;;;;;;;1.05;1.05;;;6.70;99.90;;;;;;5009010;28;20048;-77
2022/11/30 11:56:56;;;;;;;0.50;0.50;;;6.70;99.90;;;;;;5003671;28;20120;-82
2022/11/30 11:59:49;;;;;;;0.77;0.77;;;6.70;99.90;;;;;;5008926;28;20090;-76
2022/11/30 12:02:21;;;;;;;0.77;0.77;;;6.70;99.90;;;;;;5023387;28;20072;-74
2022/11/30 12:04:53;;;;;;;1.58;1.55;;;6.60;99.90;;;;;;5019356;28;20045;-76
2022/11/30 12:07:40;;;;;;;1.25;1.02;;;6.60;99.90;;;;;;5024079;28;20049;-79
2022/11/30 12:10:46;;;;;;;1.38;1.27;;;6.50;99.90;;;;;;5008696;28;20045;-82
2022/11/30 12:13:26;;;;;;;0.55;0.55;;;6.50;99.90;;;;;;4985772;28;20061;-81
2022/11/30 12:16:23;;;;;;;1.30;1.20;;;6.50;99.90;;;;;;5000868;28;20041;-76
2022/11/30 12:19:03;;;;;;;1.80;1.70;;;6.50;99.90;;;;;;5026417;28;20041;-76
2022/11/30 12:21:45;;;;;;;1.60;1.50;;;6.60;99.90;;;;;;5023795;28;20049;-76
2022/11/30 12:24:23;;;;;;;0.60;0.60;;;6.60;99.90;;;;;;5032999;28;20048;-79
2022/11/30 12:26:54;;;;;;;0.50;0.50;;;6.60;99.90;;;;;;5023227;28;20038;-79
2022/11/30 12:29:24;;;;;;;0.40;0.40;;;6.60;99.90;;;;;;5022368;28;20049;-83
2022/11/30 12:32:01;;;;;;;0.68;0.68;;;6.60;99.90;;;;;;5016379;28;20072;-78
2022/11/30 12:34:30;;;;;;;1.63;1.52;;;6.50;99.90;;;;;;5032661;28;20044;-82
2022/11/30 12:36:56;;;;;;;0.50;0.50;;;6.50;99.90;;;;;;5016807;28;20053;-82
2022/11/30 12:39:36;;;;;;;1.88;1.77;;;6.50;99.90;;;;;;5004460;28;20088;-77
2022/11/30 12:42:25;;;;;;;0.70;0.70;;;6.60;99.90;;;;;;5010399;28;20095;-81
2022/11/30 12:45:04;;;;;;;0.73;0.73;;;6.60;99.90;;;;;;5029264;28;20487;-77
2022/11/30 12:47:52;;;;;;;1.05;1.05;;;6.60;99.90;;;;;;5016791;28;20053;-82
2022/11/30 12:50:43;;;;;;;0.40;0.40;;;6.60;99.90;;;;;;5029477;28;20383;-79
2022/11/30 12:53:28;;;;;;;0.55;0.55;;;6.60;99.90;;;;;;5018294;28;20049;-79
2022/11/30 12:56:21;;;;;;;0.50;0.50;;;6.50;99.90;;;;;;5012851;28;20394;-77
2022/11/30 12:59:28;;;;;;;0.52;0.52;;;6.50;99.90;;;;;;5030953;28;20050;-79
2022/11/30 13:02:35;;;;;;;0.93;0.93;;;6.40;99.90;;;;;;4977235;28;20061;-78
2022/11/30 13:05:23;;;;;;;1.52;1.45;;;6.40;99.90;;;;;;5019108;28;20045;-77
2022/11/30 13:08:25;;;;;;;0.55;0.55;;;6.40;99.90;;;;;;5031210;28;20045;-80
2022/11/30 13:10:58;;;;;;;0.80;0.80;;;6.50;99.90;;;;;;5030527;28;20053;-79
2022/11/30 13:13:27;;;;;;;1.23;1.23;;;6.40;99.90;;;;;;5029424;28;20479;-82
2022/11/30 13:15:55;;;;;;;0.70;0.70;;;6.50;99.90;;;;;;4996091;28;20033;-80
2022/11/30 13:18:22;;;;;;;0.57;0.57;;;6.50;99.90;;;;;;5018240;28;20046;-80
2022/11/30 13:21:00;;;;;;;1.05;1.05;;;6.50;99.90;;;;;;5013617;28;20033;-76
2022/11/30 13:24:21;;;;;;;0.55;0.55;;;6.50;99.90;;;;;;5004042;28;20570;-79
2022/11/30 13:27:00;;;;;;;0.68;0.68;;;6.50;99.90;;;;;;4892975;29;20052;-75